createdAt,value
2019-05-01T00:01:49.993Z,81.47
2019-05-01T00:04:37.735Z,79.81
2019-05-01T00:07:14.486Z,79.12
2019-05-01T00:09:43.035Z,78.53
2019-05-01T00:12:11.619Z,78.97
2019-05-01T00:14:40.277Z,79.38
2019-05-01T00:17:10.463Z,80.19
2019-05-01T00:19:39.203Z,80.18
2019-05-01T00:22:07.794Z,79.94
2019-05-01T00:24:36.375Z,81.48
2019-05-01T00:27:04.978Z,81.30
2019-05-01T00:29:36.567Z,80.69
2019-05-01T00:32:05.160Z,80.38
2019-05-01T00:34:33.719Z,80.45
2019-05-01T00:37:04.727Z,80.50
2019-05-01T00:39:33.471Z,80.66
2019-05-01T00:42:02.103Z,80.91
2019-05-01T00:44:31.089Z,80.85
2019-05-01T00:46:59.970Z,81.51
2019-05-01T00:49:28.535Z,80.93
2019-05-01T00:51:57.726Z,81.23
2019-05-01T00:54:26.837Z,81.77
2019-05-01T00:57:04.848Z,81.65
2019-05-01T00:59:45.648Z,82.29
2019-05-01T01:02:22.548Z,82.59
2019-05-01T01:04:51.171Z,82.84
2019-05-01T01:07:19.930Z,82.12
2019-05-01T01:09:48.492Z,82.12
2019-05-01T01:12:17.087Z,80.47
2019-05-01T01:14:45.643Z,79.45
2019-05-01T01:17:14.597Z,79.32
2019-05-01T01:19:43.325Z,79.14
2019-05-01T01:22:11.924Z,80.89
2019-05-01T01:24:40.481Z,81.84
2019-05-01T01:27:09.053Z,82.68
2019-05-01T01:29:40.454Z,82.59
2019-05-01T01:32:09.044Z,82.69
2019-05-01T01:34:37.619Z,82.55
2019-05-01T01:37:06.215Z,82.32
2019-05-01T01:39:34.789Z,82.41
2019-05-01T01:42:03.364Z,82.77
2019-05-01T01:44:49.724Z,83.34
2019-05-01T01:47:18.304Z,83.97
2019-05-01T01:49:46.853Z,83.83
2019-05-01T01:52:15.427Z,83.42
2019-05-01T01:54:43.998Z,83.09
2019-05-01T01:57:12.559Z,83.03
2019-05-01T01:59:41.124Z,83.03
2019-05-01T02:02:35.331Z,83.13
2019-05-01T02:05:10.801Z,82.12
2019-05-01T02:07:39.368Z,82.56
2019-05-01T02:10:09.657Z,82.22
2019-05-01T02:12:38.317Z,82.42
2019-05-01T02:15:08.452Z,82.68
2019-05-01T02:17:37.018Z,83.11
2019-05-01T02:20:06.995Z,83.44
2019-05-01T02:22:35.931Z,83.74
2019-05-01T02:25:06.066Z,83.48
2019-05-01T02:27:41.434Z,83.48
2019-05-01T02:33:01.336Z,83.47
2019-05-01T02:35:33.308Z,84.11
2019-05-01T02:38:02.073Z,84.08
2019-05-01T02:41:02.228Z,84.55
2019-05-01T02:43:33.161Z,84.46
2019-05-01T02:46:02.573Z,84.66
2019-05-01T02:48:33.126Z,84.78
2019-05-01T02:51:02.087Z,84.78
2019-05-01T02:53:30.657Z,84.50
2019-05-01T02:56:25.978Z,84.50
2019-05-01T02:58:55.086Z,84.37
2019-05-01T03:01:23.947Z,84.21
2019-05-01T03:03:52.512Z,84.34
2019-05-01T03:06:21.429Z,84.41
2019-05-01T03:08:50.882Z,84.41
2019-05-01T03:11:19.459Z,84.42
2019-05-01T03:13:50.357Z,84.28
2019-05-01T03:16:18.936Z,84.25
2019-05-01T03:18:50.950Z,84.17
2019-05-01T03:21:41.595Z,84.46
2019-05-01T03:24:13.803Z,84.27
2019-05-01T03:26:42.394Z,84.27
2019-05-01T03:29:12.239Z,84.36
2019-05-01T03:31:40.837Z,84.47
2019-05-01T03:34:09.394Z,84.51
2019-05-01T03:36:38.152Z,84.42
2019-05-01T03:39:06.736Z,84.76
2019-05-01T03:41:35.471Z,84.92
2019-05-01T03:44:07.533Z,84.84
2019-05-01T03:46:36.434Z,84.67
2019-05-01T03:49:05.021Z,84.86
2019-05-01T03:51:33.645Z,85.10
2019-05-01T03:54:02.853Z,84.99
2019-05-01T03:56:31.776Z,85.56
2019-05-01T03:59:00.516Z,85.56
2019-05-01T04:01:48.447Z,85.36
2019-05-01T04:04:19.774Z,84.92
2019-05-01T04:06:48.374Z,84.72
2019-05-01T04:09:19.388Z,84.42
2019-05-01T04:11:50.138Z,84.41
2019-05-01T04:14:18.716Z,84.98
2019-05-01T04:16:50.505Z,84.48
2019-05-01T04:19:19.074Z,84.92
2019-05-01T04:21:54.628Z,84.97
2019-05-01T04:24:23.220Z,85.06
2019-05-01T04:26:54.210Z,85.55
2019-05-01T04:29:31.036Z,85.76
2019-05-01T04:32:18.661Z,85.80
2019-05-01T04:34:58.817Z,85.59
2019-05-01T04:37:27.383Z,85.13
2019-05-01T04:39:55.960Z,84.75
2019-05-01T04:42:24.528Z,84.82
2019-05-01T04:44:53.109Z,84.61
2019-05-01T04:47:21.673Z,84.62
2019-05-01T04:49:50.231Z,84.57
2019-05-01T04:52:19.002Z,84.33
2019-05-01T04:54:47.911Z,84.23
2019-05-01T04:57:16.494Z,84.05
2019-05-01T04:59:45.078Z,84.56
2019-05-01T05:02:16.385Z,84.93
2019-05-01T05:04:44.951Z,84.63
2019-05-01T05:07:15.078Z,84.20
2019-05-01T05:09:44.915Z,84.28
2019-05-01T05:12:19.474Z,83.94
2019-05-01T05:14:52.808Z,84.04
2019-05-01T05:17:24.788Z,83.53
2019-05-01T05:19:53.382Z,83.05
2019-05-01T05:22:22.286Z,82.52
2019-05-01T05:24:51.088Z,82.58
2019-05-01T05:27:21.675Z,82.41
2019-05-01T05:29:56.528Z,82.41
2019-05-01T05:32:28.554Z,82.46
2019-05-01T05:34:57.374Z,81.55
2019-05-01T05:37:29.550Z,80.72
2019-05-01T05:39:59.090Z,80.81
2019-05-01T05:42:27.640Z,79.71
2019-05-01T05:44:56.217Z,79.80
2019-05-01T05:47:25.586Z,79.52
2019-05-01T05:49:55.879Z,78.96
2019-05-01T05:52:41.893Z,78.51
2019-05-01T05:55:16.350Z,78.51
2019-05-01T05:58:22.825Z,78.34
2019-05-01T06:00:59.754Z,78.02
2019-05-01T06:04:03.534Z,78.72
2019-05-01T06:06:40.284Z,78.54
2019-05-01T06:09:13.883Z,78.49
2019-05-01T06:12:10.080Z,78.49
2019-05-01T06:14:47.930Z,78.03
2019-05-01T06:17:38.514Z,78.03
2019-05-01T06:20:27.662Z,77.77
2019-05-01T06:23:24.956Z,77.05
2019-05-01T06:26:00.054Z,76.21
2019-05-01T06:28:26.334Z,76.54
2019-05-01T06:31:17.768Z,75.90
2019-05-01T06:33:48.620Z,75.89
2019-05-01T06:36:17.134Z,75.89
2019-05-01T06:38:47.384Z,74.57
2019-05-01T06:41:16.974Z,74.99
2019-05-01T06:44:07.379Z,74.83
2019-05-01T06:47:06.269Z,74.78
2019-05-01T06:49:51.194Z,74.63
2019-05-01T06:52:24.985Z,74.65
2019-05-01T06:54:54.083Z,73.55
2019-05-01T06:57:22.700Z,73.18
2019-05-01T06:59:51.279Z,73.76
2019-05-01T07:02:20.013Z,72.35
2019-05-01T07:04:49.311Z,72.79
2019-05-01T07:07:25.045Z,72.23
2019-05-01T07:09:51.018Z,72.81
2019-05-01T07:12:23.938Z,72.40
2019-05-01T07:14:52.487Z,72.11
2019-05-01T07:17:21.082Z,71.57
2019-05-01T07:19:56.431Z,70.77
2019-05-01T07:22:25.363Z,70.27
2019-05-01T07:24:54.033Z,69.36
2019-05-01T07:27:23.739Z,68.81
2019-05-01T07:29:55.716Z,69.47
2019-05-01T07:32:24.284Z,68.98
2019-05-01T07:34:56.864Z,67.50
2019-05-01T07:37:25.983Z,65.95
2019-05-01T07:39:57.016Z,66.93
2019-05-01T07:42:28.096Z,64.80
2019-05-01T07:44:59.110Z,66.20
2019-05-01T07:47:39.673Z,65.06
2019-05-01T07:50:09.659Z,64.75
2019-05-01T07:52:40.320Z,65.09
2019-05-01T07:55:12.970Z,64.38
2019-05-01T07:57:41.299Z,63.90
2019-05-01T08:00:19.432Z,64.48
2019-05-01T08:03:02.802Z,63.84
2019-05-01T08:05:40.867Z,63.80
2019-05-01T08:08:07.829Z,63.07
2019-05-01T08:10:37.278Z,64.51
2019-05-01T08:13:05.888Z,64.09
2019-05-01T08:15:34.460Z,64.05
2019-05-01T08:18:24.124Z,64.50
2019-05-01T08:20:59.229Z,63.20
2019-05-01T08:23:27.804Z,62.61
2019-05-01T08:25:56.395Z,62.85
2019-05-01T08:28:32.074Z,61.69
2019-05-01T08:31:29.552Z,62.54
2019-05-01T08:34:04.650Z,63.12
2019-05-01T08:36:33.250Z,62.53
2019-05-01T08:39:05.009Z,62.72
2019-05-01T08:41:33.086Z,62.06
2019-05-01T08:44:01.799Z,62.31
2019-05-01T08:46:39.803Z,60.89
2019-05-01T08:49:19.034Z,61.93
2019-05-01T08:51:47.969Z,60.88
2019-05-01T08:54:20.256Z,59.43
2019-05-01T08:56:52.997Z,57.05
2019-05-01T08:59:23.805Z,56.96
2019-05-01T09:01:50.622Z,57.84
2019-05-01T09:04:25.149Z,57.55
2019-05-01T09:06:51.901Z,58.36
2019-05-01T09:09:27.721Z,57.60
2019-05-01T09:11:56.320Z,58.55
2019-05-01T09:14:29.930Z,57.41
2019-05-01T09:17:03.233Z,57.77
2019-05-01T09:19:31.912Z,55.67
2019-05-01T09:22:03.445Z,56.62
2019-05-01T09:24:32.173Z,56.80
2019-05-01T09:27:34.835Z,57.22
2019-05-01T09:30:14.201Z,57.89
2019-05-01T09:32:45.476Z,57.88
2019-05-01T09:35:15.864Z,56.02
2019-05-01T09:37:44.806Z,57.18
2019-05-01T09:40:14.060Z,56.04
2019-05-01T09:42:42.990Z,56.42
2019-05-01T09:45:11.757Z,55.16
2019-05-01T09:47:40.395Z,55.95
2019-05-01T09:50:08.990Z,55.72
2019-05-01T09:52:49.147Z,54.95
2019-05-01T09:55:27.940Z,55.42
2019-05-01T09:57:56.931Z,55.64
2019-05-01T10:00:30.488Z,55.30
2019-05-01T10:02:59.246Z,54.24
2019-05-01T10:05:29.009Z,54.67
2019-05-01T10:08:04.096Z,55.50
2019-05-01T10:10:30.855Z,54.20
2019-05-01T10:12:59.623Z,54.30
2019-05-01T10:15:28.370Z,53.55
2019-05-01T10:17:58.704Z,53.72
2019-05-01T10:20:27.688Z,54.48
2019-05-01T10:22:57.665Z,52.62
2019-05-01T10:25:26.634Z,53.97
2019-05-01T10:28:00.870Z,51.28
2019-05-01T10:30:54.941Z,50.64
2019-05-01T10:33:28.994Z,50.13
2019-05-01T10:36:19.087Z,51.32
2019-05-01T10:38:46.845Z,50.02
2019-05-01T10:41:15.476Z,50.39
2019-05-01T10:43:44.053Z,50.46
2019-05-01T10:46:12.683Z,51.10
2019-05-01T10:48:41.664Z,49.88
2019-05-01T10:51:10.429Z,50.75
2019-05-01T10:53:39.406Z,50.36
2019-05-01T10:56:07.970Z,49.48
2019-05-01T10:58:36.637Z,49.04
2019-05-01T11:01:14.934Z,50.45
2019-05-01T11:03:43.739Z,50.13
2019-05-01T11:06:12.352Z,49.11
2019-05-01T11:08:40.939Z,50.93
2019-05-01T11:11:09.555Z,49.88
2019-05-01T11:13:38.205Z,49.78
2019-05-01T11:16:06.777Z,50.04
2019-05-01T11:18:38.910Z,50.60
2019-05-01T11:21:09.665Z,49.79
2019-05-01T11:23:41.086Z,48.62
2019-05-01T11:26:09.675Z,49.15
2019-05-01T11:28:41.088Z,47.89
2019-05-01T11:31:11.312Z,48.75
2019-05-01T11:34:06.154Z,49.07
2019-05-01T11:36:52.020Z,49.78
2019-05-01T11:39:29.752Z,46.39
2019-05-01T11:42:03.519Z,47.00
2019-05-01T11:44:33.400Z,46.29
2019-05-01T11:47:02.014Z,47.38
2019-05-01T11:49:34.052Z,48.44
2019-05-01T11:52:02.634Z,47.89
2019-05-01T11:54:31.416Z,47.21
2019-05-01T11:56:59.998Z,47.53
2019-05-01T11:59:28.591Z,46.94
2019-05-01T12:01:57.194Z,47.28
2019-05-01T12:04:25.820Z,47.77
2019-05-01T12:06:54.550Z,48.12
2019-05-01T12:09:23.201Z,47.64
2019-05-01T12:11:54.843Z,47.67
2019-05-01T12:14:23.479Z,47.79
2019-05-01T12:17:02.365Z,46.69
2019-05-01T12:19:30.987Z,46.93
2019-05-01T12:21:59.563Z,46.71
2019-05-01T12:24:28.485Z,47.01
2019-05-01T12:26:57.148Z,46.36
2019-05-01T12:29:25.733Z,46.68
2019-05-01T12:31:54.349Z,47.32
2019-05-01T12:34:22.918Z,47.90
2019-05-01T12:36:53.195Z,48.29
2019-05-01T12:39:21.764Z,47.68
2019-05-01T12:41:57.310Z,48.49
2019-05-01T12:44:31.166Z,49.13
2019-05-01T12:47:11.889Z,47.85
2019-05-01T12:49:40.521Z,48.34
2019-05-01T12:52:13.157Z,47.14
2019-05-01T12:54:48.321Z,46.89
2019-05-01T12:57:17.544Z,48.80
2019-05-01T12:59:46.168Z,48.44
2019-05-01T13:02:14.949Z,48.24
2019-05-01T13:04:43.701Z,48.15
2019-05-01T13:07:12.523Z,47.83
2019-05-01T13:09:41.132Z,47.85
2019-05-01T13:12:09.897Z,48.57
2019-05-01T13:14:38.878Z,48.17
2019-05-01T13:17:07.745Z,47.88
2019-05-01T13:19:36.772Z,46.81
2019-05-01T13:22:05.486Z,48.13
2019-05-01T13:24:39.618Z,48.21
2019-05-01T13:27:18.910Z,47.51
2019-05-01T13:29:53.197Z,47.37
2019-05-01T13:32:56.646Z,46.92
2019-05-01T13:35:26.577Z,46.71
2019-05-01T13:37:55.208Z,47.41
2019-05-01T13:40:25.192Z,48.50
2019-05-01T13:42:53.859Z,47.47
2019-05-01T13:45:22.807Z,46.67
2019-05-01T13:47:54.260Z,47.38
2019-05-01T13:50:22.312Z,47.80
2019-05-01T13:52:52.492Z,47.35
2019-05-01T13:55:21.447Z,46.84
2019-05-01T13:57:50.112Z,46.61
2019-05-01T14:00:21.918Z,46.76
2019-05-01T14:02:50.209Z,47.30
2019-05-01T14:05:19.370Z,46.48
2019-05-01T14:07:48.542Z,46.80
2019-05-01T14:10:17.272Z,47.37
2019-05-01T14:12:49.328Z,46.83
2019-05-01T14:15:18.079Z,46.63
2019-05-01T14:17:47.089Z,47.64
2019-05-01T14:20:34.299Z,47.12
2019-05-01T14:23:07.921Z,46.78
2019-05-01T14:25:54.419Z,46.72
2019-05-01T14:28:24.658Z,45.92
2019-05-01T14:30:56.294Z,46.86
2019-05-01T14:33:30.173Z,45.88
2019-05-01T14:36:02.993Z,46.11
2019-05-01T14:38:34.827Z,46.44
2019-05-01T14:41:07.534Z,46.74
2019-05-01T14:43:36.532Z,46.63
2019-05-01T14:46:05.145Z,46.76
2019-05-01T14:48:33.901Z,45.55
2019-05-01T14:51:03.885Z,45.38
2019-05-01T14:53:32.494Z,44.78
2019-05-01T14:56:01.287Z,45.97
2019-05-01T14:58:34.405Z,46.02
2019-05-01T15:01:02.992Z,45.71
2019-05-01T15:03:31.596Z,46.60
2019-05-01T15:06:00.338Z,47.51
2019-05-01T15:08:28.984Z,47.07
2019-05-01T15:10:57.558Z,46.98
2019-05-01T15:13:54.322Z,46.54
2019-05-01T15:16:33.354Z,47.29
2019-05-01T15:19:05.317Z,47.17
2019-05-01T15:21:33.940Z,46.77
2019-05-01T15:24:02.568Z,46.79
2019-05-01T15:26:31.711Z,48.37
2019-05-01T15:29:00.485Z,47.29
2019-05-01T15:31:30.637Z,48.07
2019-05-01T15:33:59.245Z,47.85
2019-05-01T15:36:27.838Z,48.64
2019-05-01T15:38:57.048Z,48.96
2019-05-01T15:41:51.459Z,49.06
2019-05-01T15:44:29.521Z,48.68
2019-05-01T15:46:58.102Z,49.16
2019-05-01T15:49:27.120Z,48.95
2019-05-01T15:51:55.938Z,48.06
2019-05-01T15:54:26.088Z,47.68
2019-05-01T15:56:56.268Z,48.97
2019-05-01T15:59:25.041Z,48.49
2019-05-01T16:01:54.017Z,48.30
2019-05-01T16:04:22.766Z,47.42
2019-05-01T16:06:51.339Z,48.26
2019-05-01T16:09:19.937Z,47.20
2019-05-01T16:12:12.245Z,48.63
2019-05-01T16:14:41.986Z,47.71
2019-05-01T16:17:16.416Z,47.71
2019-05-01T16:19:45.009Z,47.50
2019-05-01T16:22:13.601Z,46.37
2019-05-01T16:24:42.186Z,46.85
2019-05-01T16:27:10.766Z,46.96
2019-05-01T16:29:39.581Z,47.38
2019-05-01T16:32:08.347Z,47.79
2019-05-01T16:34:37.283Z,47.24
2019-05-01T16:37:06.034Z,47.45
2019-05-01T16:39:49.921Z,47.56
2019-05-01T16:42:24.394Z,47.61
2019-05-01T16:44:52.981Z,47.55
2019-05-01T16:47:21.727Z,46.68
2019-05-01T16:50:11.388Z,46.97
2019-05-01T16:52:40.840Z,47.64
2019-05-01T16:55:11.347Z,47.59
2019-05-01T16:57:41.493Z,47.43
2019-05-01T17:00:12.266Z,47.71
2019-05-01T17:03:01.782Z,47.04
2019-05-01T17:05:40.893Z,47.93
2019-05-01T17:08:36.315Z,48.17
2019-05-01T17:11:04.081Z,47.58
2019-05-01T17:13:33.000Z,47.41
2019-05-01T17:16:04.660Z,46.10
2019-05-01T17:18:33.254Z,46.76
2019-05-01T17:21:03.438Z,47.79
2019-05-01T17:23:32.061Z,48.00
2019-05-01T17:26:02.235Z,47.71
2019-05-01T17:28:32.775Z,48.55
2019-05-01T17:31:02.942Z,48.02
2019-05-01T17:33:33.091Z,47.90
2019-05-01T17:36:04.029Z,47.54
2019-05-01T17:38:32.624Z,47.26
2019-05-01T17:41:01.217Z,47.33
2019-05-01T17:43:30.186Z,47.42
2019-05-01T17:45:58.805Z,47.73
2019-05-01T17:48:28.792Z,47.67
2019-05-01T17:51:00.021Z,47.87
2019-05-01T17:53:28.589Z,47.98
2019-05-01T17:55:59.516Z,48.27
2019-05-01T17:58:29.773Z,48.48
2019-05-01T18:01:27.788Z,48.99
2019-05-01T18:04:08.027Z,49.74
2019-05-01T18:06:42.025Z,50.24
2019-05-01T18:09:13.606Z,50.59
2019-05-01T18:11:39.403Z,51.26
2019-05-01T18:14:10.801Z,51.63
2019-05-01T18:16:42.797Z,51.45
2019-05-01T18:19:13.749Z,51.80
2019-05-01T18:21:46.773Z,52.07
2019-05-01T18:24:40.923Z,52.52
2019-05-01T18:27:23.842Z,52.93
2019-05-01T18:29:54.776Z,53.60
2019-05-01T18:32:36.281Z,54.04
2019-05-01T18:35:08.982Z,54.44
2019-05-01T18:37:40.318Z,55.34
2019-05-01T18:40:19.131Z,55.64
2019-05-01T18:42:47.876Z,56.26
2019-05-01T18:45:37.220Z,56.86
2019-05-01T18:48:09.188Z,57.17
2019-05-01T18:50:37.809Z,58.17
2019-05-01T18:53:11.474Z,58.22
2019-05-01T18:55:38.457Z,58.68
2019-05-01T18:58:09.378Z,59.16
2019-05-01T19:00:39.328Z,59.26
2019-05-01T19:03:08.319Z,59.94
2019-05-01T19:05:43.180Z,60.71
2019-05-01T19:08:10.298Z,62.06
2019-05-01T19:10:38.827Z,62.77
2019-05-01T19:13:07.814Z,64.12
2019-05-01T19:15:36.382Z,64.56
2019-05-01T19:18:05.016Z,65.24
2019-05-01T19:20:35.230Z,66.12
2019-05-01T19:23:07.333Z,66.25
2019-05-01T19:25:36.088Z,66.50
2019-05-01T19:28:09.009Z,66.80
2019-05-01T19:30:38.009Z,67.13
2019-05-01T19:33:06.671Z,67.13
2019-05-01T19:35:40.696Z,67.21
2019-05-01T19:38:09.690Z,67.52
2019-05-01T19:40:38.335Z,67.75
2019-05-01T19:43:26.366Z,67.72
2019-05-01T19:45:54.929Z,68.55
2019-05-01T19:48:23.495Z,69.01
2019-05-01T19:50:52.083Z,69.74
2019-05-01T19:53:21.031Z,69.80
2019-05-01T19:55:50.083Z,70.06
2019-05-01T19:58:18.711Z,70.71
2019-05-01T20:00:55.195Z,70.32
2019-05-01T20:03:23.808Z,70.61
2019-05-01T20:05:52.765Z,70.82
2019-05-01T20:08:21.351Z,71.39
2019-05-01T20:10:50.366Z,71.97
2019-05-01T20:13:18.933Z,71.35
2019-05-01T20:15:49.726Z,71.48
2019-05-01T20:18:18.310Z,71.76
2019-05-01T20:20:47.119Z,71.91
2019-05-01T20:23:15.674Z,73.22
2019-05-01T20:25:44.706Z,72.77
2019-05-01T20:28:13.293Z,73.95
2019-05-01T20:30:42.227Z,73.48
2019-05-01T20:33:12.204Z,73.31
2019-05-01T20:35:41.162Z,73.59
2019-05-01T20:38:09.715Z,73.59
2019-05-01T20:40:38.296Z,73.36
2019-05-01T20:43:09.052Z,73.77
2019-05-01T20:45:38.055Z,73.84
2019-05-01T20:48:06.929Z,74.23
2019-05-01T20:50:35.568Z,74.33
2019-05-01T20:53:04.474Z,74.45
2019-05-01T20:55:33.392Z,74.61
2019-05-01T20:58:18.552Z,75.71
2019-05-01T21:00:53.432Z,75.99
2019-05-01T21:03:19.597Z,75.71
2019-05-01T21:05:57.076Z,76.26
2019-05-01T21:08:39.272Z,76.73
2019-05-01T21:11:13.052Z,76.28
2019-05-01T21:13:41.643Z,76.60
2019-05-01T21:16:10.610Z,77.45
2019-05-01T21:18:40.555Z,77.34
2019-05-01T21:21:09.329Z,76.79
2019-05-01T21:23:40.312Z,77.35
2019-05-01T21:26:08.920Z,77.25
2019-05-01T21:28:37.848Z,77.21
2019-05-01T21:31:06.603Z,78.00
2019-05-01T21:33:35.158Z,77.86
2019-05-01T21:36:04.805Z,77.84
2019-05-01T21:38:34.009Z,77.92
2019-05-01T21:41:02.936Z,78.43
2019-05-01T21:43:35.175Z,79.00
2019-05-01T21:46:04.051Z,78.38
2019-05-01T21:48:33.388Z,78.04
2019-05-01T21:51:07.268Z,78.12
2019-05-01T21:53:37.297Z,78.59
2019-05-01T21:56:06.132Z,78.17
2019-05-01T21:58:35.954Z,78.74
2019-05-01T22:01:06.211Z,78.53
2019-05-01T22:03:34.808Z,79.54
2019-05-01T22:06:05.299Z,79.42
2019-05-01T22:08:38.592Z,79.27
2019-05-01T22:11:05.004Z,79.51
2019-05-01T22:13:33.574Z,79.34
2019-05-01T22:16:09.038Z,78.60
2019-05-01T22:18:55.496Z,78.40
2019-05-01T22:21:52.297Z,77.88
2019-05-01T22:24:39.008Z,78.27
2019-05-01T22:27:12.256Z,77.93
2019-05-01T22:29:47.182Z,78.95
2019-05-01T22:32:34.081Z,79.15
2019-05-01T22:35:29.213Z,79.28
2019-05-01T22:37:57.809Z,79.66
2019-05-01T22:40:41.012Z,80.23
2019-05-01T22:43:09.591Z,79.58
2019-05-01T22:45:40.504Z,79.70
2019-05-01T22:48:09.413Z,80.38
2019-05-01T22:50:37.996Z,80.38
2019-05-01T22:53:07.845Z,80.44
2019-05-01T22:55:36.860Z,80.31
2019-05-01T22:58:07.896Z,80.56
2019-05-01T23:00:56.515Z,80.61
2019-05-01T23:03:48.844Z,80.61
2019-05-01T23:06:17.539Z,80.33
2019-05-01T23:08:47.670Z,80.33
2019-05-01T23:11:20.312Z,79.75
2019-05-01T23:13:46.873Z,79.85
2019-05-01T23:16:17.036Z,79.83
2019-05-01T23:18:47.044Z,80.22
2019-05-01T23:21:16.246Z,80.22
2019-05-01T23:23:44.886Z,80.14
2019-05-01T23:26:16.558Z,80.18
2019-05-01T23:28:45.260Z,80.47
2019-05-01T23:31:13.888Z,80.48
2019-05-01T23:33:45.680Z,80.86
2019-05-01T23:36:23.295Z,80.76
2019-05-01T23:38:44.660Z,80.76
2019-05-01T23:41:13.231Z,80.82
2019-05-01T23:43:42.491Z,81.13
2019-05-01T23:46:12.613Z,81.39
2019-05-01T23:48:41.180Z,81.43
2019-05-01T23:51:11.209Z,81.51
2019-05-01T23:53:44.298Z,81.65
2019-05-01T23:56:10.261Z,81.97
2019-05-01T23:58:39.024Z,81.81
